CFG16F EDDF-LEPA
Flight info
| Callsign | CFG16F |
|---|---|
| Flight time | 1h 45m |
| Altitude | 29000 |
| Route | ANEKI2L ANEKI Y163 HERBI/N0455F410 Y164 MOPAN DCT LUTIX DCT BENOT DCT NEMOS DCT GEVEA DCT INCUS DCT BALSI DCT RETNO DCT TUPOX DCT MTG DCT DIVKO DCT VATIR DCT PIVUS N852 VERSO L129 LUNIK |
| Aircraft | A339/H-SADE1E2E3GHIJ3J5M1P2RWXY/LB2D1 |
Departure
| Time | 2026-05-01 12:56 |
|---|---|
| Airport | Frankfurt Main Airport (EDDF) |
Arrival
| Time | 2026-05-01 14:41 |
|---|---|
| Airport | Palma de Mallorca Airport (LEPA) |
| Time | Latitude | Longitude | Altitude | Speed | Heading |
|---|---|---|---|---|---|
| 2026-05-01 12:15 | 50.04754 | 8.57461 | 351 ft | 0 kts | 45° |
| 2026-05-01 12:43 | 50.04750 | 8.57453 | 351 ft | 4 kts | 44° |
| 2026-05-01 12:43 | 50.04731 | 8.57427 | 361 ft | 4 kts | 25° |
| 2026-05-01 12:44 | 50.04709 | 8.57412 | 356 ft | 2 kts | 14° |
| 2026-05-01 12:44 | 50.04685 | 8.57403 | 353 ft | 4 kts | 354° |
| 2026-05-01 12:44 | 50.04645 | 8.57439 | 360 ft | 4 kts | 309° |
| 2026-05-01 12:45 | 50.04616 | 8.57496 | 360 ft | 4 kts | 265° |
| 2026-05-01 12:45 | 50.04620 | 8.57533 | 357 ft | 2 kts | 250° |
| 2026-05-01 12:45 | 50.04628 | 8.57570 | 356 ft | 4 kts | 250° |
| 2026-05-01 12:46 | 50.04633 | 8.57590 | 359 ft | 0 kts | 250° |
| 2026-05-01 12:48 | 50.04633 | 8.57589 | 359 ft | 1 kts | 250° |
| 2026-05-01 12:48 | 50.04612 | 8.57502 | 361 ft | 12 kts | 250° |
| 2026-05-01 12:48 | 50.04580 | 8.57368 | 360 ft | 14 kts | 250° |
| 2026-05-01 12:48 | 50.04543 | 8.57211 | 357 ft | 17 kts | 250° |
| 2026-05-01 12:49 | 50.04500 | 8.57031 | 358 ft | 19 kts | 249° |
| 2026-05-01 12:49 | 50.04452 | 8.56830 | 359 ft | 21 kts | 249° |
| 2026-05-01 12:49 | 50.04399 | 8.56611 | 356 ft | 22 kts | 249° |
| 2026-05-01 12:49 | 50.04341 | 8.56376 | 360 ft | 24 kts | 249° |
| 2026-05-01 12:50 | 50.04304 | 8.56220 | 356 ft | 8 kts | 250° |
| 2026-05-01 12:50 | 50.04282 | 8.56123 | 357 ft | 12 kts | 250° |
| 2026-05-01 12:50 | 50.04251 | 8.55990 | 361 ft | 14 kts | 250° |
| 2026-05-01 12:50 | 50.04215 | 8.55832 | 357 ft | 17 kts | 250° |
| 2026-05-01 12:51 | 50.04171 | 8.55654 | 356 ft | 19 kts | 249° |
| 2026-05-01 12:51 | 50.04122 | 8.55455 | 359 ft | 21 kts | 249° |
| 2026-05-01 12:51 | 50.04013 | 8.54997 | 356 ft | 24 kts | 249° |
| 2026-05-01 12:52 | 50.03954 | 8.54754 | 359 ft | 24 kts | 249° |
| 2026-05-01 12:52 | 50.03833 | 8.54310 | 361 ft | 19 kts | 236° |
| 2026-05-01 12:52 | 50.03775 | 8.54122 | 355 ft | 20 kts | 249° |
| 2026-05-01 12:53 | 50.03686 | 8.53750 | 361 ft | 23 kts | 249° |
| 2026-05-01 12:53 | 50.03627 | 8.53506 | 356 ft | 24 kts | 249° |
| 2026-05-01 12:53 | 50.03565 | 8.53259 | 360 ft | 23 kts | 248° |
| 2026-05-01 12:54 | 50.03509 | 8.53039 | 359 ft | 19 kts | 250° |
| 2026-05-01 12:54 | 50.03429 | 8.52703 | 359 ft | 12 kts | 249° |
| 2026-05-01 12:54 | 50.03382 | 8.52603 | 356 ft | 12 kts | 207° |
| 2026-05-01 12:55 | 50.03103 | 8.52597 | 351 ft | 61 kts | 179° |
| 2026-05-01 12:55 | 50.02364 | 8.52597 | 355 ft | 149 kts | 179° |
| 2026-05-01 12:55 | 50.01124 | 8.52549 | 579 ft | 196 kts | 179° |
| 2026-05-01 12:56 | 49.99694 | 8.52480 | 1355 ft | 213 kts | 178° |
| 2026-05-01 12:56 | 49.98194 | 8.52426 | 2273 ft | 216 kts | 178° |
| 2026-05-01 12:56 | 49.96686 | 8.52426 | 3181 ft | 216 kts | 175° |
| 2026-05-01 12:56 | 49.95186 | 8.52516 | 4090 ft | 215 kts | 173° |
| 2026-05-01 12:57 | 49.93694 | 8.52739 | 4951 ft | 217 kts | 172° |
| 2026-05-01 12:57 | 49.90618 | 8.53286 | 6620 ft | 228 kts | 174° |
| 2026-05-01 12:57 | 49.89036 | 8.53452 | 7462 ft | 231 kts | 175° |
| 2026-05-01 12:58 | 49.87416 | 8.53573 | 8271 ft | 235 kts | 176° |
| 2026-05-01 12:58 | 49.85768 | 8.53675 | 9093 ft | 238 kts | 176° |
| 2026-05-01 12:58 | 49.84105 | 8.53769 | 9910 ft | 241 kts | 176° |
| 2026-05-01 12:59 | 49.80691 | 8.53984 | 11307 ft | 250 kts | 175° |
| 2026-05-01 12:59 | 49.78945 | 8.54092 | 12005 ft | 253 kts | 175° |
| 2026-05-01 12:59 | 49.75325 | 8.53794 | 13025 ft | 279 kts | 182° |
| 2026-05-01 13:00 | 49.71146 | 8.53215 | 13439 ft | 323 kts | 182° |
| 2026-05-01 13:00 | 49.68844 | 8.52903 | 13636 ft | 342 kts | 182° |
| 2026-05-01 13:01 | 49.63980 | 8.52249 | 14722 ft | 355 kts | 182° |
| 2026-05-01 13:01 | 49.61511 | 8.51921 | 15339 ft | 357 kts | 182° |
| 2026-05-01 13:01 | 49.56509 | 8.51263 | 16548 ft | 364 kts | 182° |
| 2026-05-01 13:02 | 49.53979 | 8.50934 | 17150 ft | 367 kts | 182° |
| 2026-05-01 13:07 | 48.95415 | 8.40943 | 27487 ft | 441 kts | 192° |
| 2026-05-01 13:07 | 48.92444 | 8.39905 | 27921 ft | 444 kts | 192° |
| 2026-05-01 13:07 | 48.89382 | 8.38841 | 28362 ft | 447 kts | 192° |
| 2026-05-01 13:08 | 48.86376 | 8.37798 | 28771 ft | 450 kts | 192° |
| 2026-05-01 13:08 | 48.83305 | 8.36734 | 29195 ft | 452 kts | 192° |
| 2026-05-01 13:08 | 48.80223 | 8.35670 | 29601 ft | 455 kts | 192° |
| 2026-05-01 13:08 | 48.77131 | 8.34597 | 30008 ft | 458 kts | 193° |
| 2026-05-01 13:09 | 48.74023 | 8.33472 | 30396 ft | 461 kts | 193° |
| 2026-05-01 13:09 | 48.70894 | 8.32317 | 30775 ft | 463 kts | 193° |
| 2026-05-01 13:09 | 48.67758 | 8.31160 | 31146 ft | 465 kts | 193° |
| 2026-05-01 13:09 | 48.64598 | 8.30000 | 31504 ft | 468 kts | 193° |
| 2026-05-01 13:10 | 48.61427 | 8.28842 | 31856 ft | 470 kts | 193° |
| 2026-05-01 13:10 | 48.58274 | 8.27695 | 32193 ft | 473 kts | 193° |
| 2026-05-01 13:10 | 48.55060 | 8.26529 | 32554 ft | 475 kts | 193° |
| 2026-05-01 13:10 | 48.51843 | 8.25364 | 32862 ft | 477 kts | 193° |
| 2026-05-01 13:11 | 48.48602 | 8.24191 | 33159 ft | 479 kts | 193° |
| 2026-05-01 13:11 | 48.45361 | 8.23012 | 33393 ft | 480 kts | 193° |
| 2026-05-01 13:11 | 48.42101 | 8.21818 | 33637 ft | 482 kts | 193° |
| 2026-05-01 13:11 | 48.38840 | 8.20626 | 33878 ft | 482 kts | 193° |
| 2026-05-01 13:12 | 48.35618 | 8.19450 | 34102 ft | 482 kts | 193° |
| 2026-05-01 13:12 | 48.32361 | 8.18264 | 34376 ft | 481 kts | 193° |
| 2026-05-01 13:12 | 48.29073 | 8.17067 | 34606 ft | 480 kts | 193° |
| 2026-05-01 13:12 | 48.25877 | 8.15822 | 34842 ft | 479 kts | 197° |
| 2026-05-01 13:13 | 48.22751 | 8.14094 | 35093 ft | 478 kts | 204° |
| 2026-05-01 13:13 | 48.19766 | 8.11929 | 35326 ft | 477 kts | 207° |
| 2026-05-01 13:13 | 48.16802 | 8.09696 | 35609 ft | 476 kts | 207° |
| 2026-05-01 13:13 | 48.13841 | 8.07482 | 35817 ft | 475 kts | 207° |
| 2026-05-01 13:14 | 48.10878 | 8.05283 | 36065 ft | 474 kts | 207° |
| 2026-05-01 13:14 | 48.07928 | 8.03105 | 36307 ft | 473 kts | 207° |
| 2026-05-01 13:14 | 48.04980 | 8.00934 | 36542 ft | 472 kts | 206° |
| 2026-05-01 13:14 | 48.02035 | 7.98770 | 36784 ft | 471 kts | 206° |
| 2026-05-01 13:15 | 47.99090 | 7.96606 | 37015 ft | 470 kts | 206° |
| 2026-05-01 13:15 | 47.96155 | 7.94453 | 37249 ft | 469 kts | 206° |
| 2026-05-01 13:15 | 47.93223 | 7.92305 | 37474 ft | 469 kts | 206° |
| 2026-05-01 13:15 | 47.90296 | 7.90166 | 37704 ft | 468 kts | 206° |
| 2026-05-01 13:16 | 47.87394 | 7.88046 | 37931 ft | 467 kts | 206° |
| 2026-05-01 13:16 | 47.84466 | 7.85910 | 38161 ft | 466 kts | 206° |
| 2026-05-01 13:16 | 47.81587 | 7.83812 | 38381 ft | 465 kts | 206° |
| 2026-05-01 13:17 | 47.72933 | 7.77520 | 38988 ft | 464 kts | 206° |
| 2026-05-01 13:17 | 47.70031 | 7.75416 | 39124 ft | 464 kts | 206° |
| 2026-05-01 13:18 | 47.64223 | 7.71212 | 39267 ft | 463 kts | 206° |
| 2026-05-01 13:18 | 47.61364 | 7.69147 | 39264 ft | 463 kts | 206° |
| 2026-05-01 13:18 | 47.55570 | 7.64968 | 39266 ft | 463 kts | 206° |
| 2026-05-01 13:19 | 47.51521 | 7.62055 | 39266 ft | 463 kts | 206° |
| 2026-05-01 13:20 | 47.42821 | 7.55810 | 39265 ft | 463 kts | 206° |
| 2026-05-01 13:20 | 47.37015 | 7.51657 | 39267 ft | 463 kts | 206° |
| 2026-05-01 13:21 | 47.28301 | 7.45441 | 39265 ft | 464 kts | 206° |
| 2026-05-01 13:21 | 47.22489 | 7.41307 | 39264 ft | 464 kts | 206° |
| 2026-05-01 13:22 | 47.17032 | 7.36296 | 39261 ft | 463 kts | 219° |
| 2026-05-01 13:22 | 47.12460 | 7.29739 | 39260 ft | 462 kts | 231° |
| 2026-05-01 13:23 | 47.08493 | 7.22322 | 39261 ft | 462 kts | 232° |
| 2026-05-01 13:23 | 47.04491 | 7.14928 | 39271 ft | 462 kts | 232° |
| 2026-05-01 13:24 | 47.00472 | 7.07565 | 39291 ft | 462 kts | 232° |
| 2026-05-01 13:25 | 46.94447 | 6.96572 | 39295 ft | 460 kts | 232° |
| 2026-05-01 13:25 | 46.90212 | 6.89621 | 39294 ft | 460 kts | 224° |
| 2026-05-01 13:26 | 46.85322 | 6.83599 | 39293 ft | 460 kts | 219° |
| 2026-05-01 13:26 | 46.80349 | 6.77719 | 39289 ft | 460 kts | 219° |
| 2026-05-01 13:27 | 46.75388 | 6.71828 | 39289 ft | 460 kts | 219° |
| 2026-05-01 13:27 | 46.67943 | 6.63009 | 39273 ft | 459 kts | 220° |
| 2026-05-01 13:28 | 46.60521 | 6.54255 | 39276 ft | 459 kts | 220° |
| 2026-05-01 13:29 | 46.50572 | 6.42566 | 39282 ft | 458 kts | 220° |
| 2026-05-01 13:31 | 46.35724 | 6.25226 | 39265 ft | 457 kts | 220° |
| 2026-05-01 13:32 | 46.22407 | 6.12966 | 39259 ft | 460 kts | 199° |
| 2026-05-01 13:33 | 46.06562 | 6.09058 | 39258 ft | 463 kts | 191° |
| 2026-05-01 13:34 | 45.93839 | 6.06240 | 39262 ft | 463 kts | 191° |
| 2026-05-01 13:35 | 45.84312 | 6.04139 | 39262 ft | 464 kts | 191° |
| 2026-05-01 13:36 | 45.74732 | 6.02024 | 39235 ft | 465 kts | 191° |
| 2026-05-01 13:36 | 45.65129 | 5.99906 | 39242 ft | 465 kts | 191° |
| 2026-05-01 13:37 | 45.59813 | 5.98737 | 39246 ft | 465 kts | 191° |
| 2026-05-01 13:37 | 45.52358 | 5.97102 | 39232 ft | 466 kts | 191° |
| 2026-05-01 13:38 | 45.42807 | 5.94572 | 39236 ft | 463 kts | 195° |
| 2026-05-01 13:39 | 45.36516 | 5.92576 | 39235 ft | 464 kts | 195° |
| 2026-05-01 13:39 | 45.30239 | 5.90616 | 39258 ft | 463 kts | 195° |
| 2026-05-01 13:40 | 45.23929 | 5.88655 | 39245 ft | 465 kts | 195° |
| 2026-05-01 13:40 | 45.17604 | 5.86692 | 39261 ft | 466 kts | 195° |
| 2026-05-01 13:41 | 45.11259 | 5.84727 | 39259 ft | 466 kts | 194° |
| 2026-05-01 13:41 | 45.04913 | 5.82765 | 39272 ft | 467 kts | 194° |
| 2026-05-01 13:42 | 44.99632 | 5.81135 | 39271 ft | 467 kts | 194° |
| 2026-05-01 13:42 | 44.93276 | 5.79180 | 39268 ft | 467 kts | 194° |
| 2026-05-01 13:43 | 44.86917 | 5.77227 | 39271 ft | 467 kts | 194° |
| 2026-05-01 13:43 | 44.80573 | 5.75283 | 39270 ft | 467 kts | 194° |
| 2026-05-01 13:44 | 44.74228 | 5.73345 | 39274 ft | 467 kts | 194° |
| 2026-05-01 13:44 | 44.67870 | 5.71406 | 39271 ft | 466 kts | 194° |
| 2026-05-01 13:45 | 44.61526 | 5.69473 | 39271 ft | 466 kts | 194° |
| 2026-05-01 13:45 | 44.55229 | 5.67561 | 39274 ft | 466 kts | 194° |
| 2026-05-01 13:46 | 44.48880 | 5.65637 | 39268 ft | 466 kts | 194° |
| 2026-05-01 13:46 | 44.42548 | 5.63724 | 39261 ft | 466 kts | 194° |
| 2026-05-01 13:47 | 44.36294 | 5.61444 | 39271 ft | 463 kts | 201° |
| 2026-05-01 13:47 | 44.30303 | 5.58160 | 39273 ft | 462 kts | 204° |
| 2026-05-01 13:48 | 44.24327 | 5.54857 | 39272 ft | 462 kts | 204° |
| 2026-05-01 13:48 | 44.18344 | 5.51586 | 39277 ft | 462 kts | 204° |
| 2026-05-01 13:49 | 44.12397 | 5.48346 | 39277 ft | 462 kts | 204° |
| 2026-05-01 13:49 | 44.06413 | 5.45093 | 39278 ft | 462 kts | 203° |
| 2026-05-01 13:50 | 44.00414 | 5.41838 | 39273 ft | 462 kts | 203° |
| 2026-05-01 13:50 | 43.94414 | 5.38589 | 39276 ft | 461 kts | 203° |
| 2026-05-01 13:51 | 43.88441 | 5.35357 | 39270 ft | 461 kts | 203° |
| 2026-05-01 13:51 | 43.82460 | 5.32129 | 39273 ft | 461 kts | 203° |
| 2026-05-01 13:52 | 43.76517 | 5.28928 | 39266 ft | 461 kts | 203° |
| 2026-05-01 13:52 | 43.70542 | 5.25716 | 39262 ft | 461 kts | 203° |
| 2026-05-01 13:53 | 43.64562 | 5.22510 | 39266 ft | 461 kts | 203° |
| 2026-05-01 13:53 | 43.55583 | 5.17706 | 39262 ft | 460 kts | 203° |
| 2026-05-01 13:54 | 43.49617 | 5.14525 | 39266 ft | 460 kts | 203° |
| 2026-05-01 13:54 | 43.43677 | 5.11363 | 39268 ft | 460 kts | 203° |
| 2026-05-01 13:55 | 43.37852 | 5.07747 | 39261 ft | 458 kts | 211° |
| 2026-05-01 13:55 | 43.32531 | 5.02988 | 39265 ft | 456 kts | 217° |
| 2026-05-01 13:56 | 43.27319 | 4.98025 | 39268 ft | 454 kts | 216° |
| 2026-05-01 13:56 | 43.22142 | 4.93150 | 39274 ft | 454 kts | 216° |
| 2026-05-01 13:57 | 43.16928 | 4.88262 | 39277 ft | 453 kts | 216° |
| 2026-05-01 13:57 | 43.11719 | 4.83390 | 39278 ft | 453 kts | 216° |
| 2026-05-01 13:58 | 43.06511 | 4.78530 | 39278 ft | 452 kts | 215° |
| 2026-05-01 13:58 | 43.01065 | 4.74209 | 39275 ft | 453 kts | 211° |
| 2026-05-01 13:59 | 42.95569 | 4.70066 | 39272 ft | 453 kts | 211° |
| 2026-05-01 13:59 | 42.90053 | 4.65890 | 39274 ft | 453 kts | 211° |
| 2026-05-01 14:00 | 42.84532 | 4.61717 | 39272 ft | 453 kts | 211° |
| 2026-05-01 14:00 | 42.79003 | 4.57552 | 39268 ft | 453 kts | 211° |
| 2026-05-01 14:01 | 42.73474 | 4.53393 | 39272 ft | 453 kts | 211° |
| 2026-05-01 14:01 | 42.67977 | 4.49267 | 39265 ft | 453 kts | 211° |
| 2026-05-01 14:02 | 42.62456 | 4.45131 | 39267 ft | 454 kts | 211° |
| 2026-05-01 14:02 | 42.56920 | 4.40992 | 39266 ft | 454 kts | 211° |
| 2026-05-01 14:03 | 42.51386 | 4.36865 | 39264 ft | 454 kts | 211° |
| 2026-05-01 14:03 | 42.45851 | 4.32742 | 39263 ft | 453 kts | 211° |
| 2026-05-01 14:04 | 42.40314 | 4.28628 | 39260 ft | 453 kts | 211° |
| 2026-05-01 14:04 | 42.35722 | 4.25224 | 39263 ft | 453 kts | 211° |
| 2026-05-01 14:05 | 42.29274 | 4.20453 | 39261 ft | 453 kts | 211° |
| 2026-05-01 14:05 | 42.23739 | 4.16362 | 39257 ft | 453 kts | 211° |
| 2026-05-01 14:06 | 42.18237 | 4.12306 | 39251 ft | 453 kts | 211° |
| 2026-05-01 14:06 | 42.12706 | 4.08238 | 39249 ft | 452 kts | 211° |
| 2026-05-01 14:07 | 42.07177 | 4.04181 | 39245 ft | 452 kts | 211° |
| 2026-05-01 14:08 | 41.98923 | 3.98138 | 39245 ft | 451 kts | 210° |
| 2026-05-01 14:08 | 41.93242 | 3.94510 | 39241 ft | 453 kts | 203° |
| 2026-05-01 14:09 | 41.87160 | 3.92119 | 39244 ft | 455 kts | 194° |
| 2026-05-01 14:09 | 41.80953 | 3.90706 | 39240 ft | 455 kts | 192° |
| 2026-05-01 14:10 | 41.74713 | 3.89291 | 39236 ft | 454 kts | 192° |
| 2026-05-01 14:10 | 41.68485 | 3.87859 | 39235 ft | 454 kts | 192° |
| 2026-05-01 14:11 | 41.62248 | 3.86425 | 39232 ft | 453 kts | 192° |
| 2026-05-01 14:11 | 41.52982 | 3.84298 | 39228 ft | 452 kts | 192° |
| 2026-05-01 14:12 | 41.46778 | 3.82876 | 39226 ft | 451 kts | 192° |
| 2026-05-01 14:12 | 41.40592 | 3.81461 | 39227 ft | 451 kts | 192° |
| 2026-05-01 14:13 | 41.35450 | 3.80286 | 39223 ft | 450 kts | 192° |
| 2026-05-01 14:13 | 41.28232 | 3.78641 | 39218 ft | 450 kts | 192° |
| 2026-05-01 14:14 | 41.22084 | 3.77243 | 39213 ft | 450 kts | 192° |
| 2026-05-01 14:14 | 41.15929 | 3.75686 | 39211 ft | 448 kts | 197° |
| 2026-05-01 14:15 | 41.10037 | 3.73048 | 39208 ft | 446 kts | 204° |
| 2026-05-01 14:15 | 41.04261 | 3.70016 | 39208 ft | 446 kts | 204° |
| 2026-05-01 14:16 | 40.98503 | 3.67040 | 39212 ft | 446 kts | 203° |
| 2026-05-01 14:16 | 40.92710 | 3.64065 | 39216 ft | 446 kts | 203° |
| 2026-05-01 14:17 | 40.86914 | 3.61095 | 39212 ft | 446 kts | 203° |
| 2026-05-01 14:17 | 40.81125 | 3.58133 | 39212 ft | 446 kts | 203° |
| 2026-05-01 14:18 | 40.75342 | 3.55179 | 39209 ft | 446 kts | 203° |
| 2026-05-01 14:18 | 40.70530 | 3.52726 | 39207 ft | 446 kts | 203° |
| 2026-05-01 14:19 | 40.63774 | 3.49287 | 38808 ft | 443 kts | 203° |
| 2026-05-01 14:19 | 40.60927 | 3.47840 | 37936 ft | 446 kts | 202° |
| 2026-05-01 14:19 | 40.58011 | 3.46358 | 36692 ft | 453 kts | 202° |
| 2026-05-01 14:20 | 40.55035 | 3.44846 | 35237 ft | 462 kts | 202° |
| 2026-05-01 14:20 | 40.48948 | 3.41763 | 32135 ft | 475 kts | 202° |
| 2026-05-01 14:20 | 40.45789 | 3.40447 | 30744 ft | 479 kts | 195° |
| 2026-05-01 14:21 | 40.42503 | 3.39682 | 29559 ft | 478 kts | 188° |
| 2026-05-01 14:21 | 40.39229 | 3.39479 | 28658 ft | 475 kts | 180° |
| 2026-05-01 14:21 | 40.35949 | 3.39680 | 27943 ft | 467 kts | 178° |
| 2026-05-01 14:22 | 40.29543 | 3.40071 | 26662 ft | 452 kts | 179° |
| 2026-05-01 14:22 | 40.26433 | 3.40247 | 26055 ft | 444 kts | 179° |
| 2026-05-01 14:22 | 40.23358 | 3.40421 | 25446 ft | 438 kts | 179° |
| 2026-05-01 14:22 | 40.20342 | 3.40590 | 24850 ft | 431 kts | 179° |
| 2026-05-01 14:23 | 40.17355 | 3.40758 | 24205 ft | 427 kts | 179° |
| 2026-05-01 14:23 | 40.14401 | 3.40925 | 23496 ft | 423 kts | 179° |
| 2026-05-01 14:23 | 40.11466 | 3.41091 | 22757 ft | 419 kts | 179° |
| 2026-05-01 14:23 | 40.08607 | 3.41252 | 22018 ft | 414 kts | 179° |
| 2026-05-01 14:24 | 40.05743 | 3.41415 | 21281 ft | 410 kts | 179° |
| 2026-05-01 14:24 | 40.02914 | 3.41575 | 20553 ft | 406 kts | 179° |
| 2026-05-01 14:24 | 40.00104 | 3.41733 | 19823 ft | 402 kts | 179° |
| 2026-05-01 14:24 | 39.97322 | 3.41888 | 19098 ft | 398 kts | 178° |
| 2026-05-01 14:25 | 39.94568 | 3.42041 | 18388 ft | 393 kts | 178° |
| 2026-05-01 14:25 | 39.91846 | 3.42194 | 17579 ft | 389 kts | 178° |
| 2026-05-01 14:25 | 39.89156 | 3.42347 | 16824 ft | 384 kts | 178° |
| 2026-05-01 14:25 | 39.86507 | 3.42497 | 16068 ft | 379 kts | 178° |
| 2026-05-01 14:26 | 39.83886 | 3.42645 | 15322 ft | 375 kts | 178° |
| 2026-05-01 14:26 | 39.78764 | 3.42933 | 14323 ft | 368 kts | 178° |
| 2026-05-01 14:26 | 39.76195 | 3.43076 | 14217 ft | 370 kts | 178° |
| 2026-05-01 14:27 | 39.73632 | 3.43167 | 14074 ft | 366 kts | 183° |
| 2026-05-01 14:27 | 39.71154 | 3.42497 | 13594 ft | 362 kts | 201° |
| 2026-05-01 14:27 | 39.68995 | 3.40874 | 12918 ft | 357 kts | 220° |
| 2026-05-01 14:28 | 39.66309 | 3.35613 | 11291 ft | 350 kts | 247° |
| 2026-05-01 14:28 | 39.65392 | 3.32735 | 10933 ft | 335 kts | 248° |
| 2026-05-01 14:28 | 39.64514 | 3.30064 | 10747 ft | 316 kts | 246° |
| 2026-05-01 14:28 | 39.63632 | 3.27554 | 10579 ft | 296 kts | 245° |
| 2026-05-01 14:29 | 39.62755 | 3.25183 | 10135 ft | 288 kts | 244° |
| 2026-05-01 14:29 | 39.61871 | 3.22867 | 9514 ft | 285 kts | 243° |
| 2026-05-01 14:30 | 39.59510 | 3.16768 | 7792 ft | 282 kts | 242° |
| 2026-05-01 14:30 | 39.58753 | 3.14813 | 7267 ft | 281 kts | 242° |
| 2026-05-01 14:30 | 39.57579 | 3.11794 | 6365 ft | 281 kts | 241° |
| 2026-05-01 14:31 | 39.55821 | 3.07305 | 5288 ft | 270 kts | 241° |
| 2026-05-01 14:31 | 39.55260 | 3.05863 | 5116 ft | 259 kts | 242° |
| 2026-05-01 14:31 | 39.54478 | 3.03854 | 4866 ft | 247 kts | 242° |
| 2026-05-01 14:31 | 39.53719 | 3.01903 | 4603 ft | 238 kts | 241° |
| 2026-05-01 14:32 | 39.52983 | 3.00013 | 4342 ft | 232 kts | 242° |
| 2026-05-01 14:32 | 39.52259 | 2.98168 | 4101 ft | 228 kts | 242° |
| 2026-05-01 14:32 | 39.51550 | 2.96354 | 3925 ft | 226 kts | 242° |
| 2026-05-01 14:32 | 39.50834 | 2.94532 | 3631 ft | 227 kts | 242° |
| 2026-05-01 14:33 | 39.50131 | 2.92720 | 3496 ft | 220 kts | 243° |
| 2026-05-01 14:33 | 39.49431 | 2.90920 | 3518 ft | 231 kts | 242° |
| 2026-05-01 14:33 | 39.48696 | 2.89042 | 3497 ft | 233 kts | 242° |
| 2026-05-01 14:33 | 39.47968 | 2.87180 | 3493 ft | 233 kts | 242° |
| 2026-05-01 14:34 | 39.47230 | 2.85302 | 3488 ft | 234 kts | 242° |
| 2026-05-01 14:34 | 39.46502 | 2.83449 | 3497 ft | 233 kts | 242° |
| 2026-05-01 14:34 | 39.45765 | 2.81573 | 3499 ft | 235 kts | 242° |
| 2026-05-01 14:34 | 39.45028 | 2.79688 | 3498 ft | 233 kts | 243° |
| 2026-05-01 14:35 | 39.44299 | 2.77827 | 3486 ft | 232 kts | 243° |
| 2026-05-01 14:35 | 39.43694 | 2.75900 | 3492 ft | 232 kts | 258° |
| 2026-05-01 14:35 | 39.43732 | 2.73824 | 3395 ft | 230 kts | 283° |
| 2026-05-01 14:35 | 39.44090 | 2.71850 | 3225 ft | 224 kts | 284° |
| 2026-05-01 14:36 | 39.44439 | 2.69940 | 3144 ft | 213 kts | 284° |
| 2026-05-01 14:36 | 39.44759 | 2.68105 | 3055 ft | 205 kts | 283° |
| 2026-05-01 14:36 | 39.45046 | 2.66346 | 2956 ft | 196 kts | 282° |
| 2026-05-01 14:36 | 39.45319 | 2.64633 | 2772 ft | 193 kts | 282° |
| 2026-05-01 14:37 | 39.45582 | 2.62941 | 2565 ft | 191 kts | 282° |
| 2026-05-01 14:37 | 39.45852 | 2.61254 | 2347 ft | 190 kts | 281° |
| 2026-05-01 14:37 | 39.46325 | 2.59684 | 2086 ft | 187 kts | 309° |
| 2026-05-01 14:37 | 39.47355 | 2.58796 | 2004 ft | 181 kts | 351° |
| 2026-05-01 14:38 | 39.48562 | 2.59065 | 2012 ft | 178 kts | 36° |
| 2026-05-01 14:38 | 39.49431 | 2.60119 | 1998 ft | 168 kts | 55° |
| 2026-05-01 14:38 | 39.50110 | 2.61384 | 1887 ft | 174 kts | 60° |
| 2026-05-01 14:38 | 39.50763 | 2.62676 | 1676 ft | 171 kts | 60° |
| 2026-05-01 14:39 | 39.51397 | 2.63978 | 1433 ft | 171 kts | 62° |
| 2026-05-01 14:39 | 39.51979 | 2.65272 | 1164 ft | 160 kts | 64° |
| 2026-05-01 14:39 | 39.52528 | 2.66445 | 906 ft | 144 kts | 62° |
| 2026-05-01 14:39 | 39.53029 | 2.67465 | 695 ft | 134 kts | 62° |
| 2026-05-01 14:40 | 39.53519 | 2.68514 | 536 ft | 138 kts | 64° |
| 2026-05-01 14:40 | 39.53998 | 2.69540 | 374 ft | 131 kts | 63° |
| 2026-05-01 14:40 | 39.54471 | 2.70551 | 170 ft | 132 kts | 63° |
| 2026-05-01 14:40 | 39.54951 | 2.71581 | 37 ft | 130 kts | 60° |
| 2026-05-01 14:41 | 39.55328 | 2.72362 | 36 ft | 72 kts | 59° |
| 2026-05-01 14:41 | 39.55484 | 2.72691 | 36 ft | 20 kts | 59° |
| 2026-05-01 14:41 | 39.55487 | 2.72824 | 36 ft | 15 kts | 117° |
| 2026-05-01 14:41 | 39.55447 | 2.72900 | 36 ft | 4 kts | 124° |
| 2026-05-01 14:42 | 39.55441 | 2.72912 | 36 ft | 0 kts | 124° |
| 2026-05-01 14:42 | 39.55439 | 2.72917 | 36 ft | 4 kts | 124° |
| 2026-05-01 14:43 | 39.55419 | 2.72974 | 36 ft | 8 kts | 98° |
| 2026-05-01 14:43 | 39.55443 | 2.73047 | 36 ft | 10 kts | 62° |
| 2026-05-01 14:43 | 39.55480 | 2.73129 | 36 ft | 12 kts | 57° |
| 2026-05-01 14:43 | 39.55528 | 2.73227 | 36 ft | 14 kts | 58° |
| 2026-05-01 14:44 | 39.55581 | 2.73339 | 36 ft | 15 kts | 58° |
| 2026-05-01 14:44 | 39.55587 | 2.73528 | 36 ft | 11 kts | 144° |
| 2026-05-01 14:44 | 39.55515 | 2.73587 | 36 ft | 13 kts | 148° |
| 2026-05-01 14:45 | 39.55434 | 2.73651 | 36 ft | 15 kts | 149° |
| 2026-05-01 14:45 | 39.55255 | 2.73793 | 36 ft | 13 kts | 148° |
| 2026-05-01 14:45 | 39.55178 | 2.73802 | 36 ft | 7 kts | 221° |
| 2026-05-01 14:46 | 39.55136 | 2.73786 | 36 ft | 7 kts | 176° |
| 2026-05-01 14:46 | 39.55036 | 2.73855 | 36 ft | 8 kts | 147° |
| 2026-05-01 14:46 | 39.55002 | 2.73884 | 36 ft | 8 kts | 146° |
| 2026-05-01 14:47 | 39.54960 | 2.73918 | 36 ft | 5 kts | 148° |
| 2026-05-01 14:47 | 39.54935 | 2.73915 | 36 ft | 3 kts | 203° |
| 2026-05-01 14:47 | 39.54916 | 2.73874 | 36 ft | 7 kts | 243° |
| 2026-05-01 14:48 | 39.54897 | 2.73818 | 36 ft | 0 kts | 248° |